Enter the Airport ICAO Code

Search by Airport or City

Current Weather

MMMM | General Francisco J. Mujica International Airport

Morelia, Michoacán, Mexico

Last Update 31 Minutes Ago

Fog Banks

Temperature of 11 ºC

Calm Wind

Temperature

11 ºC

Dew Point Temperature

11 ºC

Relative Humidity

100 %

Wind Direction

None

Wind Velocity

0 km/h (0 kt)

Gusts

None

Visibility

Reduced to 3 Miles

Sea Level Pressure

30.28 inHg (Inches of Mercury)

Layers of Clouds

None

METAR MMMM 131201Z 00000KT 3SM BCFG SKC 11/11 A3028 RMK HZY SC

Weather Forecast

MMMM | General Francisco J. Mujica International Airport

Morelia, Michoacán, Mexico

Forecast valid for the next 29 Hours

From now on it is expected:

Clear Sky

Calm Wind

From now on it is expected 1 hour with intermittent periods of:

Mist

In 5 hours it is expected the begining of:

Partly Cloudy Sky

Moderate Winds from South

In 9 hours it is expected the begining of 4 hours with intermittent periods of:

Thunderstorm with Rain

In 15 hours it is expected the begining of:

Mostly Cloudy Sky

Light to Moderate Winds from SouthEast

In 29 hours it is expected the begining of:

Partly Cloudy Sky

Moderate Winds from SouthWest

Maximum Temperature

No Data

Minimum Temperature

No Data

TAF MMMM 131203Z 1312/1418 00000KT 5SM HZ SKC TEMPO 1312/1314 2SM BR FM131800 20010KT 6SM HZ SCT025 SCT200 TEMPO 1322/1402 6SM TSRA BKN020CB FM140400 13005KT 6SM HZ SCT020 BKN200 FM141800 23010KT 6SM HZ SCT030